Time;durP1;ratioP1;P1;durP2;ratioP2;P2;SDS_P1;SDS_P2;PMS_P1;PMS_P2;Temp;Humidity;BMP_temperature;BMP_pressure;BME280_temperature;BME280_humidity;BME280_pressure;Samples;Min_cycle;Max_cycle;Signal;HPM_P1;HPM_P2
2021/06/04 00:00:27;;;;;;;6.72;5.38;;;;;;;17.23;78.46;96694.06;5056434;28;20032;-79
2021/06/04 00:02:53;;;;;;;9.70;5.10;;;;;;;17.11;78.87;96693.75;5079599;28;20038;-79
2021/06/04 00:05:22;;;;;;;7.78;5.00;;;;;;;16.94;79.86;96698.47;5062776;28;20032;-80
2021/06/04 00:07:48;;;;;;;7.25;5.28;;;;;;;17.05;79.64;96693.69;5079920;28;20397;-79
2021/06/04 00:10:42;;;;;;;7.40;4.55;;;;;;;17.18;78.61;96697.28;5062578;28;20035;-79
2021/06/04 00:13:14;;;;;;;7.78;4.40;;;;;;;17.29;78.14;96689.81;5049425;28;20044;-79
2021/06/04 00:15:39;;;;;;;6.07;4.20;;;;;;;17.35;77.84;96684.56;5057163;28;20114;-80
2021/06/04 00:18:05;;;;;;;7.65;4.68;;;;;;;17.32;78.12;96678.81;5062456;28;20054;-80
2021/06/04 00:20:31;;;;;;;7.80;4.28;;;;;;;17.27;77.97;96686.53;5060467;28;20383;-80
2021/06/04 00:22:56;;;;;;;5.78;4.15;;;;;;;17.15;78.59;96684.38;5063846;28;20027;-79
2021/06/04 00:25:23;;;;;;;6.47;4.22;;;;;;;17.13;78.88;96688.22;5068508;28;20028;-80
2021/06/04 00:27:49;;;;;;;8.32;4.00;;;;;;;17.11;78.50;96692.94;5067763;28;20035;-80
2021/06/04 00:30:16;;;;;;;7.43;4.30;;;;;;;17.01;79.31;96685.25;5076273;28;20024;-79
2021/06/04 00:32:42;;;;;;;6.65;3.97;;;;;;;17.04;78.75;96682.22;5057680;28;20070;-79
2021/06/04 00:35:11;;;;;;;8.32;4.10;;;;;;;16.96;79.02;96685.81;5070255;28;20032;-80
2021/06/04 00:37:45;;;;;;;9.80;3.72;;;;;;;17.04;78.70;96682.22;5062132;28;20019;-80
2021/06/04 00:40:22;;;;;;;8.82;4.15;;;;;;;16.92;78.92;96678.41;5082482;28;20028;-79
2021/06/04 00:42:48;;;;;;;5.82;3.78;;;;;;;16.92;78.43;96679.22;5072290;28;20716;-80
2021/06/04 00:45:21;;;;;;;9.48;3.85;;;;;;;16.93;78.49;96677.41;5064347;28;20115;-80
2021/06/04 00:47:48;;;;;;;6.45;4.05;;;;;;;16.84;79.04;96675.88;5084336;28;20036;-79
2021/06/04 00:50:22;;;;;;;5.93;4.20;;;;;;;16.81;79.05;96669.09;5075428;28;20031;-79
2021/06/04 00:52:48;;;;;;;6.18;3.55;;;;;;;16.81;78.97;96670.94;5073447;28;20111;-80
2021/06/04 00:55:19;;;;;;;5.93;3.60;;;;;;;16.70;79.46;96673.06;5070128;28;20106;-80
2021/06/04 00:57:46;;;;;;;7.30;4.20;;;;;;;16.78;78.83;96680.09;5062198;28;20044;-80
2021/06/04 01:00:26;;;;;;;5.57;3.67;;;;;;;16.66;79.37;96674.41;5061472;28;20020;-80
2021/06/04 01:02:55;;;;;;;5.63;4.10;;;;;;;16.66;79.16;96674.41;5065040;28;20028;-79
2021/06/04 01:05:23;;;;;;;6.85;3.90;;;;;;;16.68;79.06;96676.91;5059540;28;20111;-80
2021/06/04 01:08:06;;;;;;;5.40;3.75;;;;;;;16.68;78.84;96684.88;5063892;28;20111;-80
2021/06/04 01:10:56;;;;;;;6.93;3.78;;;;;;;16.73;78.61;96685.97;5061297;28;20123;-80
2021/06/04 01:13:31;;;;;;;6.85;3.72;;;;;;;16.75;78.80;96688.44;5063096;28;20720;-79
2021/06/04 01:16:36;;;;;;;6.22;3.22;;;;;;;16.72;78.84;96684.28;5063132;28;20500;-79
2021/06/04 01:19:25;;;;;;;7.95;3.90;;;;;;;16.71;79.11;96687.97;5060972;28;20051;-80
2021/06/04 01:21:57;;;;;;;5.60;3.60;;;;;;;16.63;79.72;96685.44;5077347;28;20062;-80
2021/06/04 01:24:42;;;;;;;7.88;4.43;;;;;;;16.58;79.61;96681.69;5067405;28;20038;-80
2021/06/04 01:27:19;;;;;;;5.45;3.55;;;;;;;16.58;79.71;96677.19;5061229;28;20075;-80
2021/06/04 01:29:53;;;;;;;5.20;3.30;;;;;;;16.50;79.96;96672.81;5057460;28;20092;-80
2021/06/04 01:32:32;;;;;;;8.13;3.72;;;;;;;16.38;80.50;96678.78;5066369;28;20055;-79
2021/06/04 01:35:09;;;;;;;5.75;3.92;;;;;;;16.29;80.82;96672.72;5060707;28;20024;-80
2021/06/04 01:37:37;;;;;;;5.75;4.13;;;;;;;16.16;81.50;96681.34;5061830;28;20020;-80
2021/06/04 01:40:20;;;;;;;5.85;3.80;;;;;;;16.17;81.58;96682.19;5057577;28;20036;-79
2021/06/04 01:42:49;;;;;;;6.75;4.65;;;;;;;16.12;81.99;96677.41;5053501;28;20620;-80
2021/06/04 01:45:27;;;;;;;6.72;3.83;;;;;;;16.12;81.06;96677.41;5066637;28;20031;-79
2021/06/04 01:48:11;;;;;;;7.28;3.92;;;;;;;16.02;81.26;96674.19;5058620;28;20062;-80
2021/06/04 01:50:50;;;;;;;5.97;3.45;;;;;;;15.98;81.57;96680.88;5063877;28;20059;-79
2021/06/04 01:53:25;;;;;;;5.38;3.28;;;;;;;15.91;81.58;96677.31;5063583;28;20108;-79
2021/06/04 01:56:03;;;;;;;6.35;3.88;;;;;;;15.88;81.60;96681.13;5060111;28;20036;-79
2021/06/04 01:58:57;;;;;;;6.20;3.70;;;;;;;15.91;81.88;96679.97;5067519;28;20032;-79
2021/06/04 02:01:27;;;;;;;6.13;3.78;;;;;;;15.97;81.62;96681.91;5057712;28;20367;-79
2021/06/04 02:03:54;;;;;;;6.73;3.87;;;;;;;15.94;81.64;96677.78;5059377;28;20046;-80
2021/06/04 02:06:27;;;;;;;6.45;4.03;;;;;;;15.86;82.21;96677.00;5071153;28;20126;-79
2021/06/04 02:08:57;;;;;;;9.95;4.13;;;;;;;15.82;82.27;96675.75;5052284;28;20040;-79
2021/06/04 02:11:50;;;;;;;9.00;4.00;;;;;;;15.70;82.85;96673.53;5083437;28;20035;-79
2021/06/04 02:14:29;;;;;;;7.88;4.13;;;;;;;15.63;82.61;96671.75;5065850;28;20030;-79
2021/06/04 02:17:14;;;;;;;5.93;3.80;;;;;;;15.61;83.29;96681.72;5062496;28;20029;-80
2021/06/04 02:19:59;;;;;;;6.22;3.50;;;;;;;15.66;82.79;96674.91;5065575;28;20108;-81
2021/06/04 02:23:02;;;;;;;8.07;4.10;;;;;;;15.68;82.26;96674.72;5053561;28;20036;-80
2021/06/04 02:25:55;;;;;;;5.67;3.50;;;;;;;15.68;82.65;96686.13;5063879;28;20505;-80
2021/06/04 02:28:29;;;;;;;6.47;4.45;;;;;;;15.68;82.68;96685.31;5082509;28;20034;-79
2021/06/04 02:31:09;;;;;;;6.55;4.80;;;;;;;15.57;83.58;96689.19;5075078;28;20034;-80
2021/06/04 02:33:53;;;;;;;8.27;5.75;;;;;;;15.58;84.09;96680.25;5056776;28;20050;-80
2021/06/04 02:36:25;;;;;;;9.23;5.55;;;;;;;15.56;83.56;96680.44;5057469;28;20031;-79
2021/06/04 02:39:29;;;;;;;8.73;5.40;;;;;;;15.52;83.84;96675.66;5063609;28;20054;-80
2021/06/04 02:42:18;;;;;;;10.70;5.33;;;;;;;15.48;84.01;96685.78;5061045;28;20028;-80
2021/06/04 02:44:59;;;;;;;8.18;5.18;;;;;;;15.52;83.43;96688.91;5063740;28;20085;-80
2021/06/04 02:47:32;;;;;;;8.77;5.37;;;;;;;15.45;84.52;96685.31;5078206;28;20038;-79
2021/06/04 02:50:09;;;;;;;7.70;6.13;;;;;;;15.35;85.17;96682.09;5049590;28;20028;-80
2021/06/04 02:52:39;;;;;;;8.10;5.50;;;;;;;15.33;85.15;96688.41;5058911;28;20042;-79
2021/06/04 02:55:14;;;;;;;6.55;5.13;;;;;;;15.31;85.53;96679.78;5063566;28;20032;-79
2021/06/04 02:57:42;;;;;;;6.47;4.97;;;;;;;15.38;85.02;96685.22;5057596;28;20043;-79
2021/06/04 03:00:20;;;;;;;8.07;5.20;;;;;;;15.40;84.96;96685.03;5063580;28;20021;-79
2021/06/04 03:02:48;;;;;;;11.87;5.67;;;;;;;15.38;84.71;96679.09;5060843;28;20093;-79
2021/06/04 03:05:21;;;;;;;8.97;5.83;;;;;;;15.25;85.84;96675.19;5056039;28;20051;-80
2021/06/04 03:07:51;;;;;;;6.93;5.23;;;;;;;15.25;85.57;96680.50;5073487;28;20398;-80
2021/06/04 03:10:21;;;;;;;9.73;5.50;;;;;;;15.24;85.94;96672.75;5065278;28;20588;-79
2021/06/04 03:12:50;;;;;;;7.35;5.32;;;;;;;15.26;85.95;96676.88;5065686;28;20028;-79
2021/06/04 03:15:48;;;;;;;8.07;5.50;;;;;;;15.26;85.62;96682.16;5059301;28;20016;-79
2021/06/04 03:18:29;;;;;;;9.90;5.93;;;;;;;15.22;85.92;96678.22;5058182;28;20038;-80
2021/06/04 03:20:58;;;;;;;11.13;6.80;;;;;;;15.15;86.40;96677.28;5063900;28;20028;-79
2021/06/04 03:23:35;;;;;;;8.63;5.77;;;;;;;15.13;86.11;96674.00;5065470;28;20048;-80
2021/06/04 03:26:11;;;;;;;8.80;6.47;;;;;;;15.02;86.80;96675.22;5064279;28;20088;-80
2021/06/04 03:28:38;;;;;;;8.07;5.93;;;;;;;15.00;87.04;96679.03;5079905;28;20063;-79
2021/06/04 03:31:06;;;;;;;10.53;6.60;;;;;;;14.95;87.28;96682.22;5074455;28;20032;-79
2021/06/04 03:33:36;;;;;;;8.07;5.53;;;;;;;15.01;87.20;96684.16;5061501;28;20523;-79
2021/06/04 03:36:12;;;;;;;9.83;7.03;;;;;;;15.05;87.11;96684.63;5064270;28;20066;-80
2021/06/04 03:38:39;;;;;;;9.80;7.03;;;;;;;15.09;86.44;96685.94;5057367;28;20031;-80
2021/06/04 03:41:09;;;;;;;9.93;6.40;;;;;;;15.12;86.43;96690.03;5077504;28;20047;-79
2021/06/04 03:43:38;;;;;;;9.50;7.10;;;;;;;15.13;85.87;96689.06;5070746;28;20085;-79
2021/06/04 03:46:05;;;;;;;9.87;6.97;;;;;;;15.11;86.39;96693.69;5083453;28;20030;-79
2021/06/04 03:48:34;;;;;;;10.27;7.70;;;;;;;15.10;86.86;96695.53;5078973;28;20024;-79
2021/06/04 03:51:06;;;;;;;9.70;6.73;;;;;;;15.11;86.27;96699.81;5067227;28;20024;-79
2021/06/04 03:53:33;;;;;;;9.43;7.23;;;;;;;15.16;85.69;96696.66;5059459;28;20613;-79
2021/06/04 03:55:59;;;;;;;9.40;6.20;;;;;;;15.10;85.66;96690.25;5071183;28;20028;-79
2021/06/04 03:58:27;;;;;;;8.90;6.43;;;;;;;15.12;85.90;96684.75;5076555;28;20024;-79
2021/06/04 04:00:58;;;;;;;13.00;7.67;;;;;;;14.95;86.90;96689.31;5073099;28;20519;-79
2021/06/04 04:03:27;;;;;;;9.73;6.63;;;;;;;14.98;86.93;96695.09;5068853;28;20504;-79
2021/06/04 04:06:03;;;;;;;8.20;6.20;;;;;;;15.02;86.13;96696.41;5071719;28;20107;-79
2021/06/04 04:08:29;;;;;;;9.33;6.53;;;;;;;15.02;86.40;96703.50;5073123;28;20489;-80
2021/06/04 04:10:57;;;;;;;13.90;8.97;;;;;;;15.06;85.71;96710.13;5056403;28;20036;-80
2021/06/04 04:13:24;;;;;;;36.17;20.90;;;;;;;15.03;86.36;96716.59;5074875;28;20043;-81
2021/06/04 04:15:51;;;;;;;37.30;21.53;;;;;;;15.08;85.94;96713.41;5062589;28;20473;-80
2021/06/04 04:18:17;;;;;;;26.73;12.97;;;;;;;15.15;85.38;96713.53;5060638;28;20627;-80
2021/06/04 04:20:47;;;;;;;14.87;9.77;;;;;;;15.14;84.87;96703.94;5063293;28;20036;-80
2021/06/04 04:23:17;;;;;;;13.30;8.67;;;;;;;15.15;85.28;96702.94;5064106;28;20044;-80
2021/06/04 04:25:53;;;;;;;14.23;8.47;;;;;;;15.08;84.69;96706.28;5068452;28;21025;-80
2021/06/04 04:28:26;;;;;;;16.97;9.37;;;;;;;15.22;84.52;96707.34;5063647;28;20040;-78
2021/06/04 04:30:53;;;;;;;35.67;19.90;;;;;;;15.15;85.14;96722.31;5066913;28;20112;-80
2021/06/04 04:33:20;;;;;;;30.03;16.83;;;;;;;15.01;86.87;96720.41;5066763;28;20413;-80
2021/06/04 04:35:46;;;;;;;15.43;9.93;;;;;;;15.08;86.96;96722.19;5072952;28;20036;-80
2021/06/04 04:38:18;;;;;;;12.23;8.00;;;;;;;14.99;86.58;96712.66;5064033;28;20015;-78
2021/06/04 04:40:44;;;;;;;10.13;6.77;;;;;;;15.24;84.89;96705.34;5063403;28;20088;-80
2021/06/04 04:43:10;;;;;;;12.53;7.23;;;;;;;15.38;84.67;96710.88;5070035;28;20027;-79
2021/06/04 04:45:36;;;;;;;12.83;7.33;;;;;;;15.12;85.75;96717.34;5071142;28;20025;-79
2021/06/04 04:48:03;;;;;;;9.30;7.20;;;;;;;15.06;86.26;96716.25;5063429;28;20119;-79
2021/06/04 04:50:29;;;;;;;12.47;8.30;;;;;;;15.01;86.83;96721.22;5067986;28;20024;-80
2021/06/04 04:52:58;;;;;;;9.87;7.53;;;;;;;15.00;87.23;96721.44;5059893;28;20020;-79
2021/06/04 04:55:26;;;;;;;8.97;6.60;;;;;;;15.01;86.86;96720.41;5064336;28;20032;-80
2021/06/04 04:57:52;;;;;;;7.67;6.40;;;;;;;15.06;85.91;96721.56;5086430;28;20047;-79
2021/06/04 05:00:24;;;;;;;9.43;5.60;;;;;;;15.18;85.12;96718.50;5078857;28;20043;-79
2021/06/04 05:02:51;;;;;;;7.67;5.27;;;;;;;15.29;84.07;96718.06;5054762;28;20036;-80
2021/06/04 05:05:18;;;;;;;7.40;5.40;;;;;;;15.29;84.18;96718.91;5091605;28;20023;-80
2021/06/04 05:07:44;;;;;;;8.40;5.63;;;;;;;15.50;83.25;96720.91;5069255;28;20036;-80
2021/06/04 05:10:11;;;;;;;7.70;4.90;;;;;;;15.58;82.90;96722.66;5057906;28;20459;-79
2021/06/04 05:12:38;;;;;;;10.57;5.90;;;;;;;15.65;82.89;96717.47;5061503;28;20038;-80
2021/06/04 05:15:07;;;;;;;6.97;4.90;;;;;;;15.72;82.51;96713.94;5078655;28;20390;-80
2021/06/04 05:17:33;;;;;;;9.13;5.47;;;;;;;15.74;82.65;96722.56;5067214;28;20036;-80
2021/06/04 05:19:58;;;;;;;7.00;5.10;;;;;;;15.74;82.11;96725.19;5065424;28;20038;-80
2021/06/04 05:22:30;;;;;;;12.10;5.97;;;;;;;15.88;82.13;96728.06;5060311;28;20038;-79
2021/06/04 05:24:57;;;;;;;9.30;4.93;;;;;;;15.87;82.01;96729.06;5060507;28;20513;-79
2021/06/04 05:27:22;;;;;;;8.40;4.90;;;;;;;15.86;81.90;96725.59;5067752;28;20039;-79
2021/06/04 05:29:49;;;;;;;8.95;5.10;;;;;;;16.05;80.69;96729.56;5063100;28;20551;-79
2021/06/04 05:32:15;;;;;;;8.03;5.00;;;;;;;15.90;81.91;96734.84;5066458;28;20031;-79
2021/06/04 05:34:41;;;;;;;6.82;4.47;;;;;;;15.91;81.95;96739.13;5061172;28;20078;-79
2021/06/04 05:37:07;;;;;;;7.53;4.90;;;;;;;15.86;82.19;96735.38;5065827;28;20463;-80
2021/06/04 05:39:39;;;;;;;7.22;4.95;;;;;;;16.05;81.81;96728.72;5058404;28;20039;-78
2021/06/04 05:42:06;;;;;;;7.13;5.05;;;;;;;16.26;79.93;96726.16;5059531;28;20035;-79
2021/06/04 05:44:34;;;;;;;9.68;5.00;;;;;;;16.42;79.27;96730.47;5070089;28;20395;-79
2021/06/04 05:47:07;;;;;;;7.03;4.63;;;;;;;16.55;78.96;96732.50;5062998;28;20078;-79
2021/06/04 05:49:33;;;;;;;;;;;;;;;16.61;78.20;96743.19;5079810;28;20032;-79
2021/06/04 05:52:00;;;;;;;6.25;4.40;;;;;;;16.72;77.84;96739.25;5061406;28;19999;-79
2021/06/04 05:54:27;;;;;;;7.18;4.30;;;;;;;16.85;77.37;96747.41;5062195;28;20028;-79
2021/06/04 05:56:55;;;;;;;7.25;4.10;;;;;;;17.01;76.23;96751.69;5066062;28;20123;-79
2021/06/04 05:59:21;;;;;;;7.57;3.85;;;;;;;17.13;75.83;96758.16;5056606;28;20482;-79
2021/06/04 06:01:47;;;;;;;8.70;4.07;;;;;;;17.15;75.53;96752.66;5067553;28;20028;-80
2021/06/04 06:04:15;;;;;;;7.07;4.85;;;;;;;17.23;75.34;96759.69;5075319;28;20063;-79
2021/06/04 06:06:41;;;;;;;7.15;4.20;;;;;;;17.29;74.09;96754.44;5059404;28;20481;-79
2021/06/04 06:09:07;;;;;;;9.55;4.00;;;;;;;17.48;73.73;96753.00;5059308;28;20032;-79
2021/06/04 06:11:34;;;;;;;5.70;3.72;;;;;;;17.77;72.54;96749.44;5077169;28;20131;-79
2021/06/04 06:14:00;;;;;;;7.40;3.72;;;;;;;18.00;71.95;96749.19;5075895;28;20575;-80
2021/06/04 06:16:28;;;;;;;9.27;4.57;;;;;;;17.93;72.02;96753.63;5061703;28;20493;-79
2021/06/04 06:19:00;;;;;;;5.95;4.15;;;;;;;18.10;71.88;96757.66;5059419;28;20023;-79
2021/06/04 06:21:27;;;;;;;7.03;3.67;;;;;;;18.12;70.80;96752.97;5057814;28;20105;-80
2021/06/04 06:23:53;;;;;;;9.10;4.32;;;;;;;18.17;69.83;96757.69;5065933;28;20023;-79
2021/06/04 06:26:23;;;;;;;6.75;3.95;;;;;;;18.37;67.85;96752.50;5067361;28;20177;-79
2021/06/04 06:28:51;;;;;;;6.28;3.72;;;;;;;18.54;66.83;96755.69;5069757;28;20036;-79
2021/06/04 06:31:21;;;;;;;6.55;3.72;;;;;;;18.71;66.33;96753.50;5065586;28;20024;-79
2021/06/04 06:33:49;;;;;;;7.28;3.72;;;;;;;18.96;65.34;96757.34;5065260;28;20058;-79
2021/06/04 06:36:27;;;;;;;7.38;3.30;;;;;;;19.49;63.23;96760.19;5061165;28;20020;-79
2021/06/04 06:39:24;;;;;;;5.93;3.10;;;;;;;19.71;62.18;96760.03;5058327;28;20063;-79
2021/06/04 06:41:50;;;;;;;5.55;3.10;;;;;;;20.11;61.54;96760.84;5071393;28;20048;-80
2021/06/04 06:44:16;;;;;;;5.80;3.70;;;;;;;20.18;60.66;96766.19;5053847;28;20432;-79
2021/06/04 06:46:43;;;;;;;7.55;3.75;;;;;;;20.29;60.38;96767.41;5072261;28;20036;-79
2021/06/04 06:49:10;;;;;;;6.25;3.75;;;;;;;20.78;59.66;96769.59;5079023;28;20031;-79
2021/06/04 06:51:37;;;;;;;7.03;3.30;;;;;;;20.99;59.95;96773.03;5075099;28;20032;-79
2021/06/04 06:54:07;;;;;;;5.13;3.35;;;;;;;21.92;57.40;96776.03;5056695;28;20028;-79
2021/06/04 06:56:33;;;;;;;7.18;3.30;;;;;;;21.86;59.12;96774.22;5062687;28;20091;-78
2021/06/04 06:59:00;;;;;;;5.40;3.13;;;;;;;22.27;59.36;96779.06;5077336;28;20019;-80
2021/06/04 07:01:27;;;;;;;6.57;3.30;;;;;;;22.47;58.73;96773.53;5057427;28;20066;-80
2021/06/04 07:03:53;;;;;;;6.80;3.70;;;;;;;21.90;60.50;96786.16;5083062;28;20036;-79
2021/06/04 07:06:27;;;;;;;6.93;3.67;;;;;;;22.12;60.73;96778.53;5062720;28;20042;-80
2021/06/04 07:08:55;;;;;;;5.40;3.60;;;;;;;22.16;61.36;96777.09;5062237;28;20521;-78
2021/06/04 07:11:21;;;;;;;8.15;4.47;;;;;;;22.27;62.16;96787.13;5053728;28;20487;-80
2021/06/04 07:13:51;;;;;;;7.05;4.82;;;;;;;23.28;59.01;96776.97;5054816;28;20039;-79
2021/06/04 07:16:17;;;;;;;8.55;5.60;;;;;;;23.80;58.17;96776.47;5061911;28;20017;-79
2021/06/04 07:18:43;;;;;;;6.97;4.88;;;;;;;23.17;60.02;96783.94;5057287;28;20414;-80
2021/06/04 07:21:13;;;;;;;9.13;4.95;;;;;;;23.74;58.21;96784.44;5044710;28;20051;-80
2021/06/04 07:23:39;;;;;;;6.53;4.60;;;;;;;23.94;55.37;96784.13;5051273;28;20568;-79
2021/06/04 07:26:10;;;;;;;5.70;4.65;;;;;;;23.84;56.37;96781.16;5076834;28;20035;-79
2021/06/04 07:28:38;;;;;;;8.10;4.03;;;;;;;24.12;55.44;96783.22;5077295;28;20086;-79
2021/06/04 07:31:07;;;;;;;8.35;4.10;;;;;;;24.44;54.21;96777.53;5043611;28;20077;-78
2021/06/04 07:33:37;;;;;;;9.88;5.03;;;;;;;24.62;54.39;96777.41;5064874;28;20032;-78
2021/06/04 07:36:09;;;;;;;6.38;4.20;;;;;;;25.29;52.56;96773.47;5080287;28;20036;-78
2021/06/04 07:38:35;;;;;;;6.32;4.75;;;;;;;25.83;51.02;96771.25;5064315;28;20044;-79
2021/06/04 07:41:06;;;;;;;7.00;4.97;;;;;;;25.89;50.79;96772.97;5077039;28;20023;-79
2021/06/04 07:43:35;;;;;;;8.20;5.80;;;;;;;26.01;50.11;96776.41;5058037;28;20042;-84
2021/06/04 07:46:02;;;;;;;8.90;5.10;;;;;;;26.80;48.55;96770.88;5059559;28;20471;-87
2021/06/04 07:48:32;;;;;;;6.85;4.63;;;;;;;27.54;46.86;96763.44;5058600;28;20453;-86
2021/06/04 07:50:58;;;;;;;10.13;5.43;;;;;;;26.44;48.35;96772.22;5058354;28;20068;-87
2021/06/04 07:53:27;;;;;;;7.93;4.80;;;;;;;25.61;50.99;96769.22;5063798;28;20047;-87
2021/06/04 07:55:58;;;;;;;7.57;4.68;;;;;;;26.15;49.83;96762.59;5074072;28;20133;-87
2021/06/04 07:58:26;;;;;;;6.70;4.28;;;;;;;26.88;48.06;96761.53;5070357;28;20141;-87
2021/06/04 08:00:53;;;;;;;9.25;4.47;;;;;;;26.44;49.10;96768.72;5042507;28;20099;-88
2021/06/04 08:03:23;;;;;;;6.47;4.30;;;;;;;26.00;49.70;96772.06;5045301;28;20028;-87
2021/06/04 08:05:49;;;;;;;6.47;4.13;;;;;;;26.86;48.24;96755.59;5048719;28;20486;-87
2021/06/04 08:08:17;;;;;;;5.15;3.58;;;;;;;28.19;45.02;96751.59;5059765;28;20104;-87
2021/06/04 08:10:43;;;;;;;5.30;3.72;;;;;;;29.23;43.73;96752.78;5058368;28;20039;-88
2021/06/04 08:13:15;;;;;;;9.25;4.70;;;;;;;28.90;43.13;96740.41;5068614;28;20039;-87
2021/06/04 08:15:56;;;;;;;5.55;3.95;;;;;;;29.72;41.92;96748.88;5062279;28;20040;-87
2021/06/04 08:18:25;;;;;;;6.53;5.07;;;;;;;28.02;45.64;96743.63;5069112;28;20523;-87
2021/06/04 08:20:52;;;;;;;8.05;3.72;;;;;;;29.72;41.03;96741.53;5084876;28;20024;-87
2021/06/04 08:23:31;;;;;;;5.50;3.72;;;;;;;30.16;40.23;96743.72;5067661;28;20082;-87
2021/06/04 08:25:58;;;;;;;7.55;3.95;;;;;;;31.75;37.15;96733.16;5068120;28;20094;-88
2021/06/04 08:28:26;;;;;;;4.97;3.30;;;;;;;30.15;39.75;96741.28;5063988;28;20022;-88
2021/06/04 08:30:52;;;;;;;5.32;3.28;;;;;;;29.94;39.13;96740.47;5060469;28;20036;-88
2021/06/04 08:33:24;;;;;;;6.57;4.32;;;;;;;29.88;40.33;96736.13;5059124;28;20544;-87
2021/06/04 08:35:50;;;;;;;7.28;4.00;;;;;;;30.05;39.81;96736.69;5076765;28;20032;-87
2021/06/04 08:38:20;;;;;;;7.20;3.85;;;;;;;29.79;39.57;96733.97;5065338;28;20024;-87
2021/06/04 08:40:46;;;;;;;5.28;3.42;;;;;;;30.60;38.11;96726.06;5060113;28;20061;-87
2021/06/04 08:43:16;;;;;;;5.10;3.55;;;;;;;32.04;34.72;96722.38;5077714;28;20027;-86
2021/06/04 08:46:19;;;;;;;4.40;3.08;;;;;;;32.09;35.08;96725.06;5071139;28;20036;-88
2021/06/04 08:49:02;;;;;;;4.85;3.28;;;;;;;30.56;37.05;96725.81;5060589;28;20036;-88
2021/06/04 08:52:01;;;;;;;7.45;2.70;;;;;;;31.24;36.88;96720.66;5061498;28;20031;-88
2021/06/04 08:54:42;;;;;;;6.07;3.03;;;;;;;30.36;39.18;96720.41;5058583;28;20047;-89
2021/06/04 08:57:40;;;;;;;8.13;2.75;;;;;;;32.80;34.12;96717.31;5052496;28;20036;-89
2021/06/04 09:00:15;;;;;;;5.75;3.38;;;;;;;31.60;34.65;96720.50;5071474;28;20142;-89
2021/06/04 09:02:48;;;;;;;4.72;2.78;;;;;;;31.85;34.76;96724.13;5055702;28;20553;-89
2021/06/04 09:05:35;;;;;;;5.53;3.63;;;;;;;32.13;34.22;96720.66;5074512;28;20030;-89
2021/06/04 09:08:02;;;;;;;7.55;3.80;;;;;;;32.14;34.08;96719.56;5058034;28;20085;-89
2021/06/04 09:10:40;;;;;;;6.70;2.80;;;;;;;32.73;32.61;96720.38;5058256;28;20024;-89
2021/06/04 09:13:15;;;;;;;6.15;2.83;;;;;;;32.86;32.40;96719.69;5061346;28;20027;-89
2021/06/04 09:15:43;;;;;;;7.18;3.15;;;;;;;33.01;32.79;96723.34;5059983;28;20508;-89
2021/06/04 09:18:37;;;;;;;5.47;3.03;;;;;;;33.55;31.64;96722.09;5074189;28;20028;-88
2021/06/04 09:21:12;;;;;;;5.55;2.60;;;;;;;33.60;31.32;96721.22;5079202;28;20055;-89
2021/06/04 09:23:40;;;;;;;7.20;2.95;;;;;;;33.55;31.22;96720.19;5078753;28;20032;-88
2021/06/04 09:27:13;;;;;;;;;;;;;;;;;;;;;
2021/06/04 09:29:30;;;;;;;3.95;2.20;;;;;;;34.37;30.77;96718.88;5016154;28;20079;-93
2021/06/04 09:32:18;;;;;;;3.65;2.58;;;;;;;33.74;30.76;96716.66;5073795;28;20056;-92
2021/06/04 09:34:43;;;;;;;5.25;2.53;;;;;;;34.19;30.63;96717.03;5069632;28;20098;-92
2021/06/04 09:37:25;;;;;;;5.95;2.78;;;;;;;34.23;29.02;96715.31;5061153;28;20021;-89
2021/06/04 09:40:06;;;;;;;4.90;2.58;;;;;;;33.76;29.66;96708.97;5064455;28;21077;-83
2021/06/04 09:42:33;;;;;;;5.30;2.47;;;;;;;33.84;30.33;96708.31;5073629;28;20036;-85
2021/06/04 09:45:25;;;;;;;7.25;2.90;;;;;;;34.42;29.47;96698.88;5051469;28;20016;-84
2021/06/04 09:48:03;;;;;;;3.78;2.03;;;;;;;33.77;29.78;96700.50;5024523;28;20051;-84
2021/06/04 09:50:33;;;;;;;10.48;3.13;;;;;;;34.35;28.55;96691.09;5059126;28;20036;-84
2021/06/04 09:53:12;;;;;;;5.97;3.08;;;;;;;32.55;30.89;96672.91;5057936;28;20059;-83
2021/06/04 09:55:44;;;;;;;6.32;3.47;;;;;;;33.74;29.79;96675.75;5055323;28;20030;-83
2021/06/04 09:58:13;;;;;;;4.95;2.45;;;;;;;34.46;28.59;96678.03;5075812;28;20020;-83
2021/06/04 10:00:40;;;;;;;7.30;3.63;;;;;;;34.41;28.52;96681.69;5068735;28;20035;-82
2021/06/04 10:03:22;;;;;;;4.25;2.50;;;;;;;33.42;30.36;96685.44;5065357;28;20033;-79
2021/06/04 10:05:51;;;;;;;;;;;;;;;35.46;27.92;96680.13;5069040;28;20046;-80
2021/06/04 10:08:27;;;;;;;5.70;2.35;;;;;;;35.26;27.00;96684.13;5062381;28;19961;-81
2021/06/04 10:11:13;;;;;;;6.72;3.05;;;;;;;34.65;27.50;96691.66;5054442;28;20053;-81
2021/06/04 10:13:51;;;;;;;7.47;2.45;;;;;;;34.13;27.87;96693.66;5057726;28;20550;-80
2021/06/04 10:19:33;;;;;;;11.15;7.50;;;;;;;31.97;30.12;96694.69;5069368;28;20054;-80
2021/06/04 10:22:04;;;;;;;7.47;4.65;;;;;;;31.29;29.47;96700.84;5069631;28;20439;-80
2021/06/04 10:24:35;;;;;;;3.92;1.90;;;;;;;29.75;31.32;96713.91;5061590;28;20115;-80
2021/06/04 10:27:07;;;;;;;5.30;1.60;;;;;;;30.17;29.48;96709.28;5092897;28;20098;-80
2021/06/04 10:29:34;;;;;;;4.03;1.88;;;;;;;30.17;30.54;96712.78;5078128;28;20046;-79
2021/06/04 10:32:03;;;;;;;4.25;1.50;;;;;;;29.16;33.22;96711.59;5070688;28;20108;-80
2021/06/04 10:34:34;;;;;;;8.40;4.05;;;;;;;29.70;33.36;96726.63;5070787;28;20081;-80
2021/06/04 10:37:04;;;;;;;5.95;2.13;;;;;;;29.46;34.01;96712.75;5052350;28;20069;-80
2021/06/04 10:39:44;;;;;;;6.55;3.95;;;;;;;28.82;36.03;96725.50;5056715;28;20027;-79
2021/06/04 10:42:51;;;;;;;4.93;2.10;;;;;;;27.09;40.24;96738.31;5089946;28;20047;-80
2021/06/04 10:45:39;;;;;;;14.02;8.82;;;;;;;28.20;38.32;96739.69;5053999;28;20047;-79
2021/06/04 10:48:17;;;;;;;8.57;5.28;;;;;;;27.08;40.57;96739.38;5069688;28;20031;-80
2021/06/04 10:50:52;;;;;;;12.40;7.63;;;;;;;27.02;40.75;96729.59;5062546;28;20127;-81
2021/06/04 10:53:47;;;;;;;24.30;17.67;;;;;;;26.85;41.57;96731.53;5062926;28;20032;-80
2021/06/04 10:56:26;;;;;;;13.13;9.93;;;;;;;26.42;43.00;96733.88;5055953;28;20051;-81
2021/06/04 10:59:07;;;;;;;13.80;8.65;;;;;;;25.93;44.99;96744.47;5067388;28;20040;-80
2021/06/04 11:01:39;;;;;;;16.55;8.10;;;;;;;25.45;46.39;96737.66;5060517;28;20040;-81
2021/06/04 11:04:17;;;;;;;4.38;2.15;;;;;;;25.42;46.55;96729.25;5069160;28;20047;-80
2021/06/04 11:07:00;;;;;;;13.32;5.90;;;;;;;25.76;45.50;96714.81;5056659;28;20109;-81
2021/06/04 11:10:03;;;;;;;6.05;2.88;;;;;;;25.31;45.79;96712.09;5066478;28;20036;-81
2021/06/04 11:12:51;;;;;;;8.30;5.30;;;;;;;25.57;44.65;96708.00;5056155;28;20052;-91
2021/06/04 11:15:22;;;;;;;29.00;24.23;;;;;;;25.84;44.11;96727.06;5065178;28;20310;-91
2021/06/04 11:18:10;;;;;;;55.03;44.72;;;;;;;26.32;43.13;96720.25;5070840;28;20055;-91
2021/06/04 11:20:46;;;;;;;6.60;2.40;;;;;;;25.55;44.73;96731.66;5055675;28;20505;-91
2021/06/04 11:23:42;;;;;;;5.95;2.17;;;;;;;25.44;46.24;96746.00;5079130;28;20047;-90
2021/06/04 11:26:32;;;;;;;5.10;2.53;;;;;;;24.24;49.78;96764.41;5049068;28;20067;-91
2021/06/04 11:29:07;;;;;;;6.03;2.13;;;;;;;21.94;56.25;96775.81;5055610;28;20045;-90
2021/06/04 11:32:07;;;;;;;4.65;2.30;;;;;;;21.53;58.36;96785.97;5059277;28;20035;-89
2021/06/04 11:34:48;;;;;;;6.85;2.72;;;;;;;21.48;59.86;96790.31;5062021;28;20036;-90
2021/06/04 11:37:26;;;;;;;6.72;2.40;;;;;;;21.24;60.85;96798.03;5068483;28;20059;-89
2021/06/04 11:40:03;;;;;;;5.70;2.78;;;;;;;20.94;61.13;96803.06;5050942;28;20028;-89
2021/06/04 11:42:42;;;;;;;6.05;1.92;;;;;;;20.48;62.54;96795.94;5052098;28;20650;-90
2021/06/04 11:45:08;;;;;;;5.43;2.00;;;;;;;19.96;62.52;96792.28;5058376;28;20093;-88
2021/06/04 11:47:38;;;;;;;8.52;2.25;;;;;;;20.05;66.47;96790.22;5068112;28;20076;-88
2021/06/04 11:50:25;;;;;;;4.97;1.90;;;;;;;19.94;65.72;96780.97;5061045;28;20071;-87
2021/06/04 11:52:58;;;;;;;5.63;2.40;;;;;;;20.16;65.08;96778.94;5056132;28;20032;-89
2021/06/04 11:55:27;;;;;;;92.15;51.63;;;;;;;20.52;68.07;96762.47;5057549;28;20036;-89
2021/06/04 11:57:57;;;;;;;12.80;6.57;;;;;;;21.16;68.04;96758.16;5056462;28;20016;-89
2021/06/04 12:00:29;;;;;;;6.10;2.00;;;;;;;20.93;65.54;96756.81;5052321;28;20063;-88
2021/06/04 12:03:10;;;;;;;6.38;3.40;;;;;;;20.56;65.84;96757.56;5057759;28;20043;-88
2021/06/04 12:05:40;;;;;;;4.78;2.22;;;;;;;20.88;62.81;96759.28;5057543;28;20126;-89